• Join FlightAware (Why Join?)
  • Login
  • US Flag 
07:35PM EST


 

Airport Tracker/Info


-or-


 

Live Flight TrackerFlight Track Log ✈ DAL268 ✈ 2013년 Sep 27일 ✈ KSFO - KJFK

Flight Track Log - Related Links

Times and Time Zones

All times are in EDT time to prevent confusion due to time zone crossing. See the DAL268 flight status page for this flight to view local times or setup timezone preferences in your user account.

Time Position Orientation Groundspeed Altitude Reporting Facility
EDT Latitude Longitude Course Direction KTS MPH feet Rate Location/Type
02:29PM 37.6160 -122.3810 360° North  Level FlightAware
02:31PM 37.6955 -122.0969 67° East  Level FlightAware Approximate
02:32PM 37.7489 -121.9574 65° Northeast  Level FlightAware Approximate
02:33PM 37.8000 -121.8163 90° East  Level FlightAware Approximate
02:34PM 37.8427 -121.6719 67° East  Level FlightAware Approximate
02:35PM 37.8886 -121.5288 72° East  Level FlightAware Approximate
02:41PM 37.7207 -122.0315 63° Northeast  Level FlightAware Approximate
02:42PM 37.7730 -121.8911 65° Northeast  Level FlightAware Approximate
02:43PM 37.6170 -122.3740 28° Northeast 145 167  Level FlightAware
02:44PM 37.6312 -122.3640 29° Northeast 158 182 600 1,560 Climbing FlightAware ADS-B
02:44PM 37.6393 -122.3570 34° Northeast 175 201 900 1,320 Climbing FlightAware ADS-B
02:44PM 37.6424 -122.3520 52° Northeast 185 213 1,000 1,740 Climbing FlightAware ADS-B
02:44PM 37.6489 -122.3420 51° Northeast 196 226 1,400 2,100 Climbing FlightAware ADS-B
02:45PM 37.6594 -122.3270 49° Northeast 212 244 2,000 2,220 Climbing FlightAware ADS-B
02:45PM 37.6703 -122.3120 47° Northeast 225 259 2,600 2,100 Climbing FlightAware ADS-B
02:45PM 37.6826 -122.2940 49° Northeast 242 278 3,200 2,280 Climbing FlightAware ADS-B
02:45PM 37.6952 -122.2760 48° Northeast 257 296 3,900 2,880 Climbing FlightAware ADS-B
02:46PM 37.7094 -122.2540 51° Northeast 258 297 4,900 3,120 Climbing FlightAware ADS-B
02:46PM 37.7214 -122.2360 50° Northeast 264 304 5,700 3,480 Climbing FlightAware ADS-B
02:46PM 37.7323 -122.2150 57° Northeast 263 303 6,700 3,480 Climbing FlightAware ADS-B
02:46PM 37.7368 -122.2040 63° Northeast 268 308 7,100 2,520 Climbing FlightAware ADS-B
02:47PM 37.7395 -122.1960 67° East 271 312 7,300 2,580 Climbing FlightAware ADS-B
02:47PM 37.7440 -122.1810 69° East 276 318 7,800 3,000 Climbing FlightAware ADS-B
02:47PM 37.7511 -122.1560 70° East 281 323 8,600 2,760 Climbing FlightAware ADS-B
02:47PM 37.7585 -122.1320 69° East 285 328 9,300 2,460 Climbing FlightAware ADS-B
02:48PM 37.7729 -122.0850 69° East 298 343 10,500 1,860 Climbing FlightAware ADS-B
02:48PM 37.7877 -122.0320 71° East 328 377 11,200 1,320 Climbing FlightAware ADS-B
02:49PM 37.8044 -121.9720 71° East 352 405 11,900 1,560 Climbing FlightAware ADS-B
02:49PM 37.8277 -121.8900 70° East 375 432 13,100 1,860 Climbing FlightAware ADS-B
02:50PM 37.8458 -121.8260 70° East 387 445 14,200 2,160 Climbing FlightAware ADS-B
02:50PM 37.8641 -121.7610 70° East 393 452 15,300 2,280 Climbing FlightAware ADS-B
02:51PM 37.8829 -121.6940 70° East 399 459 16,500 2,160 Climbing FlightAware ADS-B
02:51PM 37.9016 -121.6270 71° East 406 467 17,500 2,040 Climbing FlightAware ADS-B
02:52PM 37.9209 -121.5590 70° East 413 475 18,600 1,920 Climbing FlightAware ADS-B
02:52PM 37.9406 -121.4880 71° East 421 484 19,500 1,800 Climbing FlightAware ADS-B
02:53PM 37.9613 -121.4140 70° East 426 490 20,500 1,920 Climbing FlightAware ADS-B
02:53PM 37.9811 -121.3430 70° East 430 495 21,500 1,740 Climbing FlightAware ADS-B
02:54PM 38.0019 -121.2680 71° East 439 505 22,300 1,560 Climbing FlightAware ADS-B
02:55PM 38.0229 -121.1920 71° East 444 511 23,200 1,680 Climbing FlightAware ADS-B
02:55PM 38.0449 -121.1120 71° East 450 518 24,100 1,500 Climbing FlightAware ADS-B
02:56PM 38.0660 -121.0340 71° East 457 526 24,800 1,320 Climbing FlightAware ADS-B
02:56PM 38.0830 -120.9590 74° East 464 534 25,500 1,440 Climbing FlightAware
02:57PM 38.1010 -120.8640 76° East 471 542 26,400 1,320 Climbing FlightAware
02:57PM 38.1170 -120.7720 78° East 477 549 27,100 1,020 Climbing FlightAware
02:58PM 38.1340 -120.6760 77° East 487 560 27,600 960 Climbing FlightAware
02:58PM 38.1510 -120.5810 77° East 493 567 28,200 1,260 Climbing FlightAware
02:59PM 38.1710 -120.4700 77° East 492 566 29,200 1,560 Climbing FlightAware
03:00PM 38.1870 -120.3800 77° East 490 564 30,100 1,560 Climbing FlightAware
03:00PM 38.2030 -120.2910 77° East 487 560 30,900 1,500 Climbing FlightAware
03:01PM 38.2230 -120.1790 77° East 485 558 31,900 1,500 Climbing FlightAware
03:01PM 38.2266 -120.1578 78° East 486 559 32,100 1,200 Climbing FlightAware ADS-B (KAHC)
03:02PM 38.2540 -120.0000 77° East 485 558 33,200 1,200 Climbing FlightAware
03:02PM 38.2720 -119.8990 77° East 483 556 34,000 1,260 Climbing FlightAware
03:03PM 38.2890 -119.8010 78° East 484 557 34,700 1,140 Climbing FlightAware
03:03PM 38.2924 -119.7796 79° East 484 557 34,900 360 Climbing FlightAware ADS-B (KAHC)
03:04PM 38.3112 -119.6706 78° East 488 562 35,000 60 Climbing FlightAware ADS-B (KAHC)
03:05PM 38.3302 -119.5591 78° East 488 562 35,000 60 Level FlightAware ADS-B (KAHC)
03:05PM 38.3570 -119.3980 78° East 488 562 35,100 360 Climbing FlightAware
03:06PM 38.3638 -119.3605 77° East 487 560 35,400 1,200 Climbing FlightAware ADS-B (KAHC)
03:06PM 38.3780 -119.2756 78° East 486 559 36,000 1,080 Climbing FlightAware ADS-B (KAHC)
03:07PM 38.3931 -119.1851 78° East 487 560 36,600 780 Climbing FlightAware ADS-B (KAHC)
03:07PM 38.4115 -119.0745 78° East 489 563 37,000 240 Climbing FlightAware ADS-B (KAHC)
03:08PM 38.4349 -118.9326 78° East 492 566 37,000  Level FlightAware ADS-B (KAHC)
03:09PM 38.4546 -118.8128 78° East 493 567 37,000  Level FlightAware ADS-B (KAHC)
03:09PM 38.4710 -118.7130 78° East 493 567 37,000  Level FlightAware
03:10PM 38.4860 -118.6220 78° East 493 567 37,000  Level FlightAware
03:11PM 38.5000 -118.5340 78° East 493 567 37,000  Level FlightAware
03:11PM 38.5250 -118.3750 79° East 492 566 37,000  Level FlightAware
03:12PM 38.5390 -118.2840 79° East 491 565 37,000  Level FlightAware
03:13PM 38.5550 -118.1880 78° East 491 565 37,000  Level FlightAware
03:13PM 38.5710 -118.0870 79° East 491 565 37,000  Level FlightAware
03:14PM 38.5870 -117.9790 79° East 490 564 37,000  Level FlightAware
03:14PM 38.6040 -117.8810 77° East 490 564 37,000  Level FlightAware
03:15PM 38.6180 -117.7940 78° East 490 564 37,000  Level FlightAware
03:16PM 38.6320 -117.7100 78° East 490 564 37,000  Level FlightAware
03:16PM 38.6460 -117.6230 78° East 490 564 37,000  Level FlightAware
03:17PM 38.6610 -117.5340 78° East 490 564 37,000  Level FlightAware
03:17PM 38.6760 -117.4440 78° East 490 564 37,000  Level FlightAware
03:18PM 38.6910 -117.3570 78° East 490 564 37,000  Level FlightAware
03:19PM 38.7050 -117.2730 78° East 490 564 37,000  Level FlightAware
03:19PM 38.7190 -117.1860 78° East 490 564 37,000  Level FlightAware
03:20PM 38.7330 -117.0990 78° East 490 564 37,000  Level FlightAware
03:20PM 38.7480 -117.0120 78° East 490 564 37,000  Level FlightAware
03:21PM 38.7620 -116.9250 78° East 490 564 37,000  Level FlightAware
03:22PM 38.7770 -116.8380 78° East 490 564 37,000  Level FlightAware
03:22PM 38.7910 -116.7530 78° East 490 564 37,000  Level FlightAware
03:23PM 38.8060 -116.6590 78° East 490 564 37,000  Level FlightAware
03:24PM 38.8210 -116.5720 77° East 490 564 37,000  Level FlightAware
03:25PM 38.8581 -116.1347 77° East 499 574 37,000  Level Salt Lake Center
03:26PM 38.8819 -115.9603 80° East 497 572 37,000  Level Salt Lake Center
03:27PM 38.9056 -115.7847 80° East 498 573 37,000  Level Salt Lake Center
03:28PM 38.9292 -115.6131 80° East 491 565 37,000  Level Salt Lake Center
03:29PM 38.9517 -115.4406 80° East 490 564 37,000  Level Salt Lake Center
03:30PM 38.9772 -115.2575 80° East 488 562 37,000  Level Salt Lake Center
03:31PM 38.9997 -115.0867 80° East 487 560 37,000  Level Salt Lake Center
03:32PM 39.0211 -114.9150 81° East 487 560 37,000  Level Salt Lake Center
03:38PM 39.1486 -113.8760 81° East 501 577 37,000  Level FlightAware ADS-B
03:39PM 39.1702 -113.6915 81° East 505 581 37,000  Level FlightAware ADS-B
03:39PM 39.1840 -113.5700 82° East 506 582 37,000  Level FlightAware
03:40PM 39.1967 -113.4632 81° East 507 583 37,000  Level FlightAware ADS-B
03:40PM 39.2098 -113.3479 82° East 508 585 37,000  Level FlightAware ADS-B
03:41PM 39.2200 -113.2570 82° East 508 585 37,000  Level FlightAware ADS-B
03:42PM 39.2336 -113.1359 82° East 508 585 37,000  Level FlightAware ADS-B
03:42PM 39.2435 -113.0470 82° East 507 583 37,000  Level FlightAware ADS-B
03:43PM 39.2516 -112.9732 82° East 507 583 37,000  Level FlightAware ADS-B
03:43PM 39.2545 -112.9470 82° East 507 583 37,000  Level FlightAware ADS-B
03:43PM 39.2644 -112.8570 82° East 505 581 37,000  Level FlightAware ADS-B
03:43PM 39.2659 -112.8431 82° East 504 580 37,000  Level FlightAware ADS-B
03:44PM 39.2743 -112.7660 82° East 504 580 37,000  Level FlightAware ADS-B
03:44PM 39.2754 -112.7564 82° East 504 580 37,000  Level FlightAware ADS-B
03:44PM 39.2885 -112.6350 82° East 504 580 37,000  Level FlightAware ADS-B
03:45PM 39.2907 -112.6141 82° East 504 580 37,000  Level FlightAware ADS-B
03:45PM 39.2966 -112.5600 82° East 503 579 37,000  Level FlightAware ADS-B
03:45PM 39.3116 -112.4560 79° East 502 578 37,000  Level FlightAware ADS-B
03:46PM 39.3278 -112.3680 77° East 501 577 37,000  Level FlightAware ADS-B
03:46PM 39.3283 -112.3655 76° East 501 577 37,000  Level FlightAware ADS-B
03:46PM 39.3443 -112.2810 76° East 502 578 37,000  Level FlightAware ADS-B
03:47PM 39.3448 -112.2779 77° East 502 578 37,000  Level FlightAware ADS-B
03:47PM 39.3611 -112.1910 76° East 502 578 37,000  Level FlightAware ADS-B
03:48PM 39.3804 -112.0870 76° East 503 579 37,000  Level FlightAware ADS-B
03:48PM 39.3874 -112.0494 76° East 503 579 37,000  Level FlightAware ADS-B
03:48PM 39.3967 -111.9990 77° East 504 580 37,000  Level FlightAware ADS-B
03:49PM 39.4128 -111.9110 77° East 504 580 37,000  Level FlightAware ADS-B
03:49PM 39.4292 -111.8210 77° East 504 580 37,000  Level FlightAware ADS-B
03:49PM 39.4398 -111.7631 77° East 505 581 37,000  Level FlightAware ADS-B
03:50PM 39.4464 -111.7260 77° East 505 581 37,000  Level FlightAware ADS-B
03:50PM 39.4630 -111.6343 77° East 506 582 37,000  Level FlightAware ADS-B
03:50PM 39.4636 -111.6310 77° East 506 582 37,000  Level FlightAware ADS-B
03:51PM 39.4795 -111.5430 77° East 507 583 37,000  Level FlightAware ADS-B
03:51PM 39.4956 -111.4530 77° East 508 585 37,000  Level FlightAware ADS-B
03:51PM 39.5020 -111.4167 77° East 508 585 37,000  Level FlightAware ADS-B
03:52PM 39.5120 -111.3610 77° East 509 586 37,000  Level FlightAware ADS-B
03:52PM 39.5202 -111.3146 77° East 510 587 37,000  Level FlightAware ADS-B
03:52PM 39.5283 -111.2690 77° East 510 587 37,000  Level FlightAware ADS-B
03:53PM 39.5375 -111.2168 77° East 511 588 37,000  Level FlightAware ADS-B
03:53PM 39.5441 -111.1790 77° East 510 587 37,000  Level FlightAware ADS-B
03:53PM 39.5565 -111.1093 77° East 510 587 37,000  Level FlightAware ADS-B
03:53PM 39.5601 -111.0890 77° East 509 586 37,000  Level FlightAware ADS-B
03:54PM 39.5732 -111.0140 77° East 510 587 37,000  Level FlightAware ADS-B
03:54PM 39.5837 -110.9540 77° East 510 587 37,000  Level FlightAware ADS-B
03:55PM 39.6019 -110.8483 77° East 512 589 37,000  Level FlightAware ADS-B
03:55PM 39.6190 -110.7480 77° East 513 590 37,000  Level FlightAware
03:55PM 39.6163 -110.7640 258° West 513 590 37,000  Level FlightAware ADS-B
03:56PM 39.6550 -110.5410 77° East 518 596 37,000  Level FlightAware
03:57PM 39.6790 -110.3970 78° East 520 598 37,000  Level FlightAware
03:58PM 39.6940 -110.3070 78° East 521 600 37,000  Level FlightAware
03:58PM 39.7150 -110.1810 78° East 522 601 37,000  Level FlightAware
03:59PM 39.7310 -110.0860 78° East 523 602 37,000  Level FlightAware
03:59PM 39.7480 -109.9850 78° East 524 603 37,000  Level FlightAware
04:00PM 39.7660 -109.8720 78° East 525 604 37,000  Level FlightAware
04:01PM 39.7840 -109.7610 78° East 525 604 37,000  Level FlightAware
04:01PM 39.8010 -109.6580 78° East 526 605 37,000  Level FlightAware
04:02PM 39.8200 -109.5390 78° East 528 608 37,000  Level FlightAware
04:02PM 39.8360 -109.4390 78° East 528 608 37,000  Level FlightAware
04:03PM 39.8580 -109.3050 78° East 527 606 37,000  Level FlightAware
04:04PM 39.8750 -109.1930 79° East 527 606 37,000  Level FlightAware
04:04PM 39.8910 -109.0940 78° East 529 609 37,000  Level FlightAware
04:05PM 39.9070 -108.9880 79° East 530 610 37,000  Level FlightAware
04:05PM 39.9230 -108.8840 79° East 531 611 37,000  Level FlightAware
04:06PM 39.9430 -108.7560 78° East 531 611 37,000  Level FlightAware
04:07PM 39.9600 -108.6450 79° East 531 611 37,000  Level FlightAware
04:07PM 39.9750 -108.5500 78° East 529 609 37,000  Level FlightAware
04:08PM 39.9920 -108.4320 79° East 528 608 37,000  Level FlightAware
04:08PM 40.0080 -108.3300 78° East 527 606 37,000  Level FlightAware
04:09PM 40.0220 -108.2300 80° East 526 605 37,000  Level FlightAware
04:09PM 40.0400 -108.1140 79° East 525 604 37,000  Level FlightAware
04:10PM 40.0560 -108.0010 79° East 521 600 37,000  Level FlightAware
04:11PM 40.0790 -107.8990 74° East 527 606 37,000  Level FlightAware
04:11PM 40.1160 -107.7970 65° Northeast 532 612 37,000  Level FlightAware
04:12PM 40.1590 -107.6840 64° Northeast 529 609 37,000  Level FlightAware
04:12PM 40.1980 -107.5800 64° Northeast 529 609 37,000  Level FlightAware
04:13PM 40.2330 -107.4900 63° Northeast 529 609 37,000  Level FlightAware
04:14PM 40.2720 -107.3860 64° Northeast 532 612 37,000  Level FlightAware
04:14PM 40.3080 -107.2890 64° Northeast 534 615 37,000  Level FlightAware
04:15PM 40.3490 -107.1790 64° Northeast 536 617 37,000  Level FlightAware
04:15PM 40.3850 -107.0840 64° Northeast 538 619 37,000  Level FlightAware
04:16PM 40.4330 -106.9550 64° Northeast 540 621 37,000  Level FlightAware
04:17PM 40.4730 -106.8470 64° Northeast 543 625 37,000  Level FlightAware
04:17PM 40.5110 -106.7430 64° Northeast 547 629 37,000  Level FlightAware
04:18PM 40.5470 -106.6440 64° Northeast 549 632 37,000  Level FlightAware
04:18PM 40.5860 -106.5370 64° Northeast 549 632 37,000  Level FlightAware
04:19PM 40.6200 -106.4450 64° Northeast 548 631 37,000  Level FlightAware
04:19PM 40.6640 -106.3240 64° Northeast 549 632 37,000  Level FlightAware
04:20PM 40.7000 -106.2240 65° Northeast 549 632 37,000  Level FlightAware
04:21PM 40.7420 -106.1080 64° Northeast 545 627 37,000  Level FlightAware
04:21PM 40.7750 -106.0140 65° Northeast 544 626 37,000  Level FlightAware
04:22PM 40.8140 -105.9060 64° Northeast 543 625 37,000  Level FlightAware
04:22PM 40.8510 -105.8030 65° Northeast 544 626 37,000  Level FlightAware
04:23PM 40.8950 -105.6800 65° Northeast 544 626 37,000  Level FlightAware
04:24PM 40.9360 -105.5640 65° Northeast 542 624 37,000  Level FlightAware
04:24PM 40.9690 -105.4700 65° Northeast 538 619 37,000  Level FlightAware
04:25PM 41.0070 -105.3610 65° Northeast 537 618 37,000  Level FlightAware
04:25PM 41.0460 -105.2490 65° Northeast 542 624 37,000  Level FlightAware
04:26PM 41.0790 -105.1560 65° Northeast 549 632 37,000  Level FlightAware
04:27PM 41.1160 -105.0480 66° East 554 638 37,000  Level FlightAware
04:27PM 41.1580 -104.9270 65° Northeast 557 641 37,000  Level FlightAware
04:28PM 41.1930 -104.8250 65° Northeast 556 640 37,000  Level FlightAware
04:28PM 41.2270 -104.7080 69° East 553 636 37,000  Level FlightAware
04:29PM 41.2520 -104.6040 72° East 550 633 37,000  Level FlightAware
04:30PM 41.2790 -104.4870 73° East 547 629 37,000  Level FlightAware
04:30PM 41.3020 -104.3870 73° East 545 627 37,000  Level FlightAware
04:31PM 41.3320 -104.2570 73° East 542 624 37,000  Level FlightAware
04:31PM 41.3550 -104.1580 73° East 539 620 37,000  Level FlightAware
04:32PM 41.3830 -104.0360 73° East 536 617 37,000  Level FlightAware
04:32PM 41.4040 -103.9470 73° East 534 615 37,000  Level FlightAware
04:33PM 41.4330 -103.8210 73° East 532 612 37,000  Level FlightAware
04:34PM 41.4530 -103.7320 73° East 533 613 37,000  Level FlightAware
04:34PM 41.4800 -103.6140 73° East 533 613 37,000  Level FlightAware
04:35PM 41.5130 -103.4650 73° East 532 612 37,000  Level FlightAware
04:35PM 41.5330 -103.3750 73° East 531 611 37,000  Level FlightAware
04:36PM 41.5700 -103.2110 73° East 530 610 37,000  Level FlightAware
04:37PM 41.5980 -103.0880 73° East 530 610 37,000  Level FlightAware
04:38PM 41.6200 -102.9950 72° East 530 610 37,000  Level FlightAware
04:38PM 41.6400 -102.9040 74° East 530 610 37,000  Level FlightAware
04:39PM 41.6620 -102.8080 73° East 530 610 37,000  Level FlightAware
04:39PM 41.6850 -102.7100 73° East 530 610 37,000  Level FlightAware
04:40PM 41.7070 -102.6110 73° East 530 610 37,000  Level FlightAware
04:41PM 41.7300 -102.5120 73° East 530 610 37,000  Level FlightAware
04:41PM 41.7510 -102.4210 73° East 530 610 37,000  Level FlightAware
04:42PM 41.7740 -102.3200 73° East 530 610 37,000  Level FlightAware
04:42PM 41.7960 -102.2230 73° East 530 610 37,000  Level FlightAware
04:43PM 41.8180 -102.1270 73° East 530 610 37,000  Level FlightAware
04:44PM 41.8400 -102.0280 73° East 530 610 37,000  Level FlightAware
04:44PM 41.8630 -101.9290 73° East 530 610 37,000  Level FlightAware
04:45PM 41.8840 -101.8350 73° East 530 610 37,000  Level FlightAware
04:45PM 41.9050 -101.7420 73° East 530 610 37,000  Level FlightAware
04:46PM 41.9667 -101.3481 73° East 544 626 37,000  Level Denver Center
04:47PM 42.0111 -101.1275 75° East 546 628 37,000  Level Denver Center
04:48PM 42.0478 -100.9400 75° East 543 625 37,000  Level Denver Center
04:54PM 42.2652 -99.8136 75° East 533 613 37,000  Level FlightAware ADS-B
04:54PM 42.2878 -99.6929 76° East 533 613 37,000  Level FlightAware ADS-B
04:59PM 42.4461 -98.8242 76° East 530 610 37,000  Level FlightAware ADS-B
04:59PM 42.4628 -98.7246 77° East 529 609 37,000  Level FlightAware ADS-B
05:06PM 42.5230 -97.5480 86° East 517 595 37,000  Level FlightAware
05:06PM 42.5280 -97.4350 87° East 516 594 37,000  Level FlightAware
05:07PM 42.5320 -97.3200 87° East 516 594 37,000  Level FlightAware
05:07PM 42.5370 -97.2010 87° East 517 595 37,000  Level FlightAware
05:08PM 42.5430 -97.0500 87° East 517 595 37,000  Level FlightAware
05:09PM 42.5470 -96.9260 87° East 518 596 37,000  Level FlightAware
05:09PM 42.5510 -96.8170 87° East 517 595 37,000  Level FlightAware
05:10PM 42.5550 -96.7010 87° East 517 595 37,000  Level FlightAware
05:10PM 42.5590 -96.5920 87° East 516 594 37,000  Level FlightAware
05:11PM 42.5620 -96.4880 88° East 516 594 37,000  Level FlightAware
05:11PM 42.5652 -96.3866 88° East 516 594 37,000  Level FlightAware ADS-B
05:12PM 42.5690 -96.2620 88° East 519 597 37,000  Level FlightAware
05:13PM 42.5730 -96.1440 87° East 520 598 37,000  Level FlightAware
05:13PM 42.5760 -96.0270 88° East 521 600 37,000  Level FlightAware
05:14PM 42.5779 -95.9542 88° East 522 601 37,000  Level FlightAware ADS-B
05:14PM 42.5820 -95.8180 88° East 523 602 37,000  Level FlightAware
05:15PM 42.5840 -95.7203 88° East 522 601 37,000  Level FlightAware ADS-B
05:16PM 42.5870 -95.5870 88° East 522 601 37,000  Level FlightAware
05:16PM 42.5907 -95.4426 88° East 522 601 37,000  Level FlightAware ADS-B (LPVM)
05:17PM 42.5930 -95.3430 88° East 522 601 37,000  Level FlightAware
05:17PM 42.5950 -95.2360 89° East 522 601 37,000  Level FlightAware
05:17PM 42.5941 -95.2869 269° West 523 602 37,000  Level FlightAware ADS-B (LPVM)
05:18PM 42.5978 -95.1113 88° East 523 602 37,000  Level FlightAware ADS-B (LPVM)
05:19PM 42.6000 -94.9941 88° East 523 602 37,000  Level FlightAware ADS-B (LPVM)
05:20PM 42.6033 -94.8180 89° East 522 601 37,000  Level FlightAware ADS-B (LPVM)
05:20PM 42.6064 -94.6233 89° East 521 600 37,000  Level FlightAware ADS-B (LPVM)
05:21PM 42.6080 -94.5070 89° East 519 597 37,000  Level FlightAware
05:21PM 42.6087 -94.4705 88° East 519 597 37,000  Level FlightAware ADS-B (LPVM)
05:22PM 42.6100 -94.3829 89° East 518 596 37,000  Level FlightAware ADS-B (LPVM)
05:22PM 42.6110 -94.2780 89° East 517 595 37,000  Level FlightAware
05:23PM 42.6119 -94.2269 89° East 517 595 37,000  Level FlightAware ADS-B (LPVM)
05:23PM 42.6127 -94.1274 89° East 517 595 37,000  Level FlightAware ADS-B (LPVM)
05:24PM 42.6141 -93.9322 89° East 516 594 37,000  Level FlightAware ADS-B (LPVM)
05:25PM 42.6150 -93.8160 89° East 516 594 37,000  Level FlightAware
05:25PM 42.6150 -93.7120 90° East 516 594 37,000  Level FlightAware
05:26PM 42.6158 -93.5988 89° East 517 595 37,000  Level FlightAware ADS-B (LPVM)
05:26PM 42.6160 -93.4850 90° East 517 595 37,000  Level FlightAware
05:26PM 42.6162 -93.5072 271° West 518 596 37,000  Level FlightAware ADS-B (LPVM)
05:27PM 42.6170 -93.2680 90° East 517 595 37,000  Level FlightAware
05:28PM 42.6170 -93.1450 90° East 517 595 37,000  Level FlightAware
05:29PM 42.6166 -93.0240 90° East 517 595 37,000  Level FlightAware ADS-B (LPVM)
05:29PM 42.6160 -92.9170 90° East 516 594 37,000  Level FlightAware
05:30PM 42.6163 -92.8649 90° East 516 594 37,000  Level FlightAware ADS-B (LPVM)
05:30PM 42.6158 -92.7040 90° East 515 593 37,000  Level FlightAware ADS-B (LPVM)
05:31PM 42.6152 -92.5800 90° East 515 593 37,000  Level FlightAware ADS-B (LPVM)
05:32PM 42.6150 -92.4680 90° East 514 592 37,000  Level FlightAware
05:32PM 42.6142 -92.4141 91° East 514 592 37,000  Level FlightAware ADS-B (LPVM)
05:33PM 42.6133 -92.2878 91° East 513 590 37,000  Level FlightAware ADS-B (LPVM)
05:33PM 42.6120 -92.1400 91° East 512 589 37,000  Level FlightAware
05:34PM 42.6125 -92.1938 271° West 512 589 37,000  Level FlightAware ADS-B (LPVM)
05:34PM 42.6105 -91.9762 91° East 511 588 37,000  Level FlightAware ADS-B (LPVM)
05:35PM 42.6086 -91.8105 91° East 511 588 37,000  Level FlightAware ADS-B (LPVM)
05:36PM 42.6074 -91.7073 91° East 511 588 37,000  Level FlightAware ADS-B (LPVM)
05:36PM 42.6061 -91.6089 91° East 511 588 37,000  Level FlightAware ADS-B (LPVM)
05:37PM 42.6044 -91.4848 91° East 511 588 37,000  Level FlightAware ADS-B (LPVM)
05:37PM 42.6030 -91.3921 91° East 511 588 37,000  Level FlightAware ADS-B (LPVM)
05:38PM 42.6007 -91.2531 91° East 511 588 37,000  Level FlightAware ADS-B (LPVM)
05:39PM 42.5985 -91.1258 91° East 511 588 37,000  Level FlightAware ADS-B (LPVM)
05:39PM 42.5962 -90.9982 91° East 512 589 37,000  Level FlightAware ADS-B (LPVM)
05:40PM 42.5949 -90.9294 91° East 512 589 37,000  Level FlightAware ADS-B (LPVM)
05:40PM 42.5919 -90.7805 92° East 512 589 37,000  Level FlightAware ADS-B (LPVM)
05:41PM 42.5890 -90.6630 92° East 512 589 37,000  Level FlightAware
05:42PM 42.5860 -90.5380 92° East 512 589 37,000  Level FlightAware
05:42PM 42.5840 -90.4260 91° East 513 590 37,000  Level FlightAware
05:43PM 42.5810 -90.3100 92° East 513 590 37,000  Level FlightAware
05:43PM 42.5790 -90.2110 92° East 512 589 37,000  Level FlightAware
05:44PM 42.5750 -90.0940 93° East 512 589 37,000  Level FlightAware
05:45PM 42.5730 -89.9910 91° East 511 588 37,000  Level FlightAware
05:45PM 42.5690 -89.8750 93° East 510 587 37,000  Level FlightAware
05:46PM 42.5660 -89.7540 92° East 510 587 37,000  Level FlightAware
05:46PM 42.5630 -89.6450 92° East 509 586 37,000  Level FlightAware
05:47PM 42.5590 -89.5310 93° East 509 586 37,000  Level FlightAware
05:47PM 42.5560 -89.4260 92° East 508 585 37,000  Level FlightAware
05:48PM 42.5520 -89.3140 93° East 507 583 37,000  Level FlightAware
05:49PM 42.5480 -89.2120 93° East 506 582 37,000  Level FlightAware
05:49PM 42.5440 -89.0890 92° East 504 580 37,000  Level FlightAware
05:50PM 42.5400 -88.9750 93° East 502 578 37,000  Level FlightAware
05:50PM 42.5360 -88.8730 93° East 500 575 37,000  Level FlightAware
05:51PM 42.5320 -88.7600 93° East 499 574 37,000  Level FlightAware
05:52PM 42.5280 -88.6570 93° East 497 572 37,000  Level FlightAware
05:52PM 42.5240 -88.5600 93° East 496 571 37,000  Level FlightAware
05:53PM 42.5190 -88.4360 93° East 495 570 37,000  Level FlightAware
05:53PM 42.5140 -88.3270 94° East 494 568 37,000  Level FlightAware
05:54PM 42.5100 -88.2260 93° East 494 568 37,000  Level FlightAware
05:55PM 42.5050 -88.1100 93° East 493 567 37,000  Level FlightAware
05:55PM 42.5010 -88.0170 93° East 493 567 37,000  Level FlightAware
05:56PM 42.5000 -87.9010 91° East 492 566 37,000  Level FlightAware
05:56PM 42.5000 -87.7970 90° East 491 565 37,000  Level FlightAware
05:57PM 42.5000 -87.6850 90° East 490 564 37,000  Level FlightAware
05:57PM 42.4990 -87.5830 91° East 490 564 37,000  Level FlightAware
05:58PM 42.4990 -87.4670 90° East 490 564 37,000  Level FlightAware
05:59PM 42.4990 -87.3630 90° East 490 564 37,000  Level FlightAware
05:59PM 42.4980 -87.2600 91° East 489 563 37,000  Level FlightAware
06:00PM 42.4970 -87.1500 91° East 489 563 37,000  Level FlightAware
06:00PM 42.4960 -87.0380 91° East 489 563 37,000  Level FlightAware
06:01PM 42.4960 -86.9520 90° East 489 563 37,000  Level FlightAware
06:02PM 42.4940 -86.8250 91° East 489 563 37,000  Level FlightAware
06:02PM 42.4930 -86.7200 91° East 488 562 37,000  Level FlightAware
06:03PM 42.4920 -86.5990 91° East 488 562 37,000  Level FlightAware
06:03PM 42.4900 -86.4830 91° East 487 560 37,000  Level FlightAware
06:04PM 42.4890 -86.3960 91° East 488 562 37,000  Level FlightAware
06:05PM 42.4880 -86.2770 91° East 488 562 37,000  Level FlightAware
06:05PM 42.4860 -86.1730 91° East 488 562 37,000  Level FlightAware
06:06PM 42.4840 -86.0630 91° East 488 562 37,000  Level FlightAware
06:06PM 42.4820 -85.9520 91° East 488 562 37,000  Level FlightAware
06:07PM 42.4800 -85.8400 91° East 488 562 37,000  Level FlightAware
06:08PM 42.4780 -85.7110 91° East 488 562 37,000  Level FlightAware
06:08PM 42.4760 -85.6180 92° East 488 562 37,000  Level FlightAware
06:09PM 42.4740 -85.5050 91° East 488 562 37,000  Level FlightAware
06:09PM 42.4710 -85.3870 92° East 487 560 37,000  Level FlightAware
06:10PM 42.4690 -85.2960 92° East 486 559 37,000  Level FlightAware
06:10PM 42.4660 -85.1840 92° East 485 558 37,000  Level FlightAware
06:11PM 42.4640 -85.0800 91° East 485 558 37,000  Level FlightAware
06:12PM 42.4610 -84.9660 92° East 486 559 37,000  Level FlightAware
06:12PM 42.4580 -84.8730 92° East 486 559 37,000  Level FlightAware
06:13PM 42.4540 -84.7620 93° East 489 563 37,000  Level FlightAware
06:13PM 42.4470 -84.6540 95° East 489 563 37,000  Level FlightAware
06:14PM 42.4410 -84.5430 94° East 489 563 37,000  Level FlightAware
06:15PM 42.4350 -84.4440 95° East 489 563 37,000  Level FlightAware
06:15PM 42.4290 -84.3400 94° East 488 562 37,000  Level FlightAware
06:16PM 42.4210 -84.2110 95° East 487 560 37,000  Level FlightAware
06:16PM 42.4150 -84.1090 95° East 487 560 37,000  Level FlightAware
06:17PM 42.4080 -83.9880 94° East 486 559 37,000  Level FlightAware
06:18PM 42.4010 -83.8790 95° East 485 558 37,000  Level FlightAware
06:18PM 42.3960 -83.7900 94° East 485 558 37,000  Level FlightAware
06:19PM 42.3880 -83.6740 95° East 483 556 37,000  Level FlightAware
06:19PM 42.3820 -83.5680 94° East 482 555 37,000  Level FlightAware
06:20PM 42.3750 -83.4630 95° East 481 554 37,000  Level FlightAware
06:20PM 42.3680 -83.3630 95° East 480 552 37,000  Level FlightAware
06:21PM 42.3610 -83.2570 95° East 480 552 37,000  Level FlightAware
06:22PM 42.3550 -83.1640 95° East 480 552 37,000  Level FlightAware
06:22PM 42.3470 -83.0510 95° East 479 551 37,000  Level FlightAware
06:23PM 42.3390 -82.9400 96° East 478 550 37,000  Level FlightAware
06:23PM 42.3310 -82.8350 96° East 477 549 37,000  Level FlightAware
06:24PM 42.3250 -82.7420 95° East 476 548 37,000  Level FlightAware
06:25PM 42.3170 -82.6350 96° East 476 548 37,000  Level FlightAware
06:25PM 42.3090 -82.5300 96° East 476 548 37,000  Level FlightAware
06:26PM 42.3030 -82.4410 95° East 475 547 37,000  Level FlightAware
06:26PM 42.2940 -82.3290 96° East 474 545 37,000  Level FlightAware
06:27PM 42.2870 -82.2300 95° East 474 545 37,000  Level FlightAware
06:27PM 42.2800 -82.1450 96° East 474 545 37,000  Level FlightAware
06:28PM 42.2710 -82.0230 96° East 473 544 37,000  Level FlightAware
06:29PM 42.2640 -81.9330 96° East 473 544 37,000  Level FlightAware
06:29PM 42.2540 -81.8140 96° East 473 544 37,000  Level FlightAware
06:30PM 42.2460 -81.7100 96° East 473 544 37,000  Level FlightAware
06:30PM 42.2370 -81.6080 97° East 473 544 37,000  Level FlightAware
06:31PM 42.2290 -81.5020 96° East 472 543 37,000  Level FlightAware
06:32PM 42.2200 -81.3990 97° East 472 543 37,000  Level FlightAware
06:32PM 42.2120 -81.3060 97° East 472 543 37,000  Level FlightAware
06:33PM 42.2030 -81.2050 97° East 471 542 37,000  Level FlightAware
06:33PM 42.1950 -81.1020 96° East 470 541 37,000  Level FlightAware
06:34PM 42.1850 -80.9980 97° East 469 540 37,000  Level FlightAware
06:34PM 42.1770 -80.8970 96° East 469 540 37,000  Level FlightAware
06:35PM 42.1670 -80.7910 97° East 468 539 37,000  Level FlightAware
06:36PM 42.1590 -80.6960 96° East 468 539 37,000  Level FlightAware
06:36PM 42.1490 -80.5930 97° East 466 536 37,000  Level FlightAware
06:37PM 42.1400 -80.4910 97° East 466 536 37,000  Level FlightAware
06:37PM 42.1300 -80.3850 97° East 466 536 37,000  Level FlightAware
06:38PM 42.1210 -80.2860 97° East 466 536 37,000  Level FlightAware
06:39PM 42.1120 -80.1900 97° East 466 536 37,000  Level FlightAware
06:39PM 42.1020 -80.0850 97° East 467 537 37,000  Level FlightAware
06:40PM 42.0920 -79.9900 98° East 467 537 37,000  Level FlightAware
06:40PM 42.0820 -79.8800 97° East 467 537 37,000  Level FlightAware
06:41PM 42.0730 -79.7870 97° East 467 537 37,000  Level FlightAware
06:42PM 42.0620 -79.6820 98° East 465 535 37,000  Level FlightAware
06:42PM 42.0530 -79.5840 97° East 464 534 37,000  Level FlightAware
06:43PM 42.0420 -79.4820 98° East 463 533 37,000  Level FlightAware
06:43PM 42.0320 -79.3830 98° East 462 532 37,000  Level FlightAware
06:44PM 42.0220 -79.2830 98° East 460 529 37,000  Level FlightAware
06:44PM 42.0130 -79.1990 98° East 460 529 37,000  Level FlightAware
06:45PM 42.0020 -79.0890 98° East 460 529 37,000  Level FlightAware
06:46PM 41.9900 -78.9820 99° East 459 528 37,000  Level FlightAware
06:46PM 41.9820 -78.8990 97° East 459 528 37,000  Level FlightAware
06:47PM 41.9700 -78.7930 99° East 459 528 37,000  Level FlightAware
06:47PM 41.9590 -78.6890 98° East 459 528 37,000  Level FlightAware
06:48PM 41.9510 -78.6160 98° East 460 529 37,000  Level FlightAware
06:48PM 41.9380 -78.4990 98° East 463 533 37,000  Level FlightAware
06:49PM 41.9280 -78.4020 98° East 464 534 37,000  Level FlightAware
06:50PM 41.9160 -78.3000 99° East 465 535 37,000  Level FlightAware
06:50PM 41.9040 -78.1910 98° East 466 536 37,000  Level FlightAware
06:51PM 41.8940 -78.1020 99° East 466 536 37,000  Level FlightAware
06:51PM 41.8820 -78.0010 99° East 466 536 37,000  Level FlightAware
06:52PM 41.8690 -77.8940 99° East 467 537 37,000  Level FlightAware
06:53PM 41.8500 -77.7930 104° East 474 545 37,000  Level FlightAware
06:53PM 41.8260 -77.7030 110° East 474 545 37,000  Level FlightAware
06:54PM 41.7990 -77.6010 110° East 474 545 37,000  Level FlightAware
06:54PM 41.7770 -77.5180 110° East 474 545 37,000  Level FlightAware
06:55PM 41.7480 -77.4110 110° East 473 544 37,000  Level FlightAware
06:56PM 41.7220 -77.3110 109° East 472 543 37,000  Level FlightAware
06:56PM 41.6950 -77.2130 110° East 471 542 37,000  Level FlightAware
06:57PM 41.6670 -77.1090 110° East 470 541 37,000  Level FlightAware
06:58PM 41.6320 -76.9790 110° East 468 539 37,000  Level FlightAware
06:58PM 41.6070 -76.8850 110° East 466 536 37,000  Level FlightAware
06:59PM 41.5780 -76.7820 111° Southeast 465 535 37,000  Level FlightAware
06:59PM 41.5520 -76.6850 110° East 463 533 37,000  Level FlightAware
07:00PM 41.5280 -76.5970 110° East 462 532 37,000  Level FlightAware
07:01PM 41.5010 -76.4990 110° East 461 531 37,000  Level FlightAware
07:01PM 41.4750 -76.4070 111° Southeast 460 529 37,000 -120 Level FlightAware
07:02PM 41.4520 -76.3250 110° East 459 528 36,900 -660 Descending FlightAware
07:02PM 41.4240 -76.2250 110° East 458 527 36,300 -900 Descending FlightAware
07:03PM 41.3970 -76.1290 111° Southeast 456 525 35,800 -1,080 Descending FlightAware
07:03PM 41.3730 -76.0410 110° East 458 527 35,100 -1,080 Descending FlightAware
07:04PM 41.3470 -75.9520 111° Southeast 455 524 34,600 -1,500 Descending FlightAware
07:05PM 41.3190 -75.8520 110° East 459 528 33,300 -2,640 Descending FlightAware
07:05PM 41.2960 -75.7690 110° East 463 533 31,600 -3,360 Descending FlightAware
07:06PM 41.2660 -75.6680 112° Southeast 468 539 29,500 -3,480 Descending FlightAware
07:06PM 41.2370 -75.5820 114° Southeast 472 543 27,600 -3,180 Descending FlightAware
07:07PM 41.2060 -75.4900 114° Southeast 464 534 25,900 -2,820 Descending FlightAware
07:08PM 41.1760 -75.4010 114° Southeast 455 524 24,300 -2,280 Descending FlightAware
07:08PM 41.1430 -75.3020 114° Southeast 444 511 23,100 -1,140 Descending FlightAware
07:09PM 41.1150 -75.2200 114° Southeast 443 510 23,000 -660 Descending FlightAware
07:09PM 41.0860 -75.1330 114° Southeast 444 511 22,400 -840 Descending FlightAware
07:10PM 41.0540 -75.0390 114° Southeast 445 512 22,000 -600 Descending FlightAware
07:11PM 41.0240 -74.9520 115° Southeast 445 512 21,700 -600 Descending FlightAware
07:11PM 40.9960 -74.8530 111° Southeast 437 503 21,300 -600 Descending FlightAware
07:12PM 40.9830 -74.7570 100° East 435 501 21,000 -540 Descending FlightAware
07:12PM 40.9740 -74.6690 98° East 433 498 20,700 -480 Descending FlightAware
07:13PM 40.9650 -74.5860 98° East 431 496 20,500 -540 Descending FlightAware
07:13PM 40.9550 -74.4910 98° East 426 490 20,100 -780 Descending FlightAware
07:14PM 40.9450 -74.3980 98° East 401 461 19,600 -900 Descending FlightAware
07:15PM 40.9350 -74.3130 99° East 376 433 19,000 -600 Descending FlightAware
07:15PM 40.9275 -74.2479 99° East 368 423 19,000  Level FlightAware ADS-B
07:16PM 40.9180 -74.1680 99° East 325 374 19,000  Level FlightAware
07:16PM 40.9136 -74.1417 102° East 326 375 19,000  Level FlightAware ADS-B
07:16PM 40.9082 -74.1239 112° Southeast 329 379 19,000  Level FlightAware ADS-B
07:17PM 40.8840 -74.0702 121° Southeast 332 382 19,000 -240 Level FlightAware ADS-B
07:17PM 40.8572 -74.0168 124° Southeast 331 381 18,800 -480 Descending FlightAware ADS-B
07:17PM 40.8523 -74.0071 124° Southeast 331 381 18,700 -1,380 Descending FlightAware ADS-B (KSNC)
07:18PM 40.8314 -73.9653 123° Southeast 328 377 18,100 -1,740 Descending FlightAware ADS-B
07:18PM 40.8034 -73.9088 123° Southeast 328 377 17,100 -1,740 Descending FlightAware ADS-B (KSNC)
07:19PM 40.7787 -73.8584 123° Southeast 324 373 16,200 -1,620 Descending FlightAware ADS-B (KSNC)
07:19PM 40.7691 -73.8327 116° Southeast 327 376 15,900 -1,500 Descending FlightAware ADS-B
07:19PM 40.7670 -73.8258 112° Southeast 321 369 15,800 -1,740 Descending FlightAware ADS-B
07:19PM 40.7587 -73.7972 111° Southeast 320 368 15,300 -1,560 Descending FlightAware ADS-B (KSNC)
07:20PM 40.7319 -73.7021 110° East 316 364 14,000 -1,500 Descending FlightAware ADS-B (KSNC)
07:21PM 40.7134 -73.6336 110° East 310 357 13,100 -1,080 Descending FlightAware ADS-B (KSNC)
07:22PM 40.6930 -73.5560 109° East 302 348 12,600 -1,020 Descending FlightAware
07:22PM 40.6780 -73.5080 112° Southeast 305 351 11,900 -1,740 Descending FlightAware
07:22PM 40.6670 -73.4930 134° Southeast 305 351 11,500 -2,100 Descending FlightAware
07:23PM 40.6570 -73.4850 149° Southeast 305 351 11,200 -2,160 Descending FlightAware
07:23PM 40.6460 -73.4800 161° South 304 350 10,900 -2,040 Descending FlightAware
07:23PM 40.6320 -73.4780 174° South 304 350 10,600 -2,340 Descending FlightAware
07:23PM 40.5990 -73.4820 185° South 306 352 9,600 -2,400 Descending FlightAware
07:24PM 40.5741 -73.4880 190° South 299 344 8,900 -2,340 Descending FlightAware ADS-B (KSNC)
07:24PM 40.5180 -73.5230 205° Southwest 291 335 7,200 -2,400 Descending FlightAware
07:25PM 40.4950 -73.5380 206° Southwest 290 334 6,400 -2,580 Descending FlightAware
07:25PM 40.4720 -73.5530 206° Southwest 286 329 5,600 -2,340 Descending FlightAware
07:25PM 40.4490 -73.5680 206° Southwest 282 325 4,900 -2,280 Descending FlightAware
07:26PM 40.4200 -73.5870 207° Southwest 283 326 3,900 -1,980 Descending FlightAware
07:26PM 40.3960 -73.6030 207° Southwest 283 326 3,400 -1,320 Descending FlightAware
07:26PM 40.3780 -73.6140 205° Southwest 283 326 3,100 -1,080 Descending FlightAware
07:27PM 40.3470 -73.6340 206° Southwest 278 320 2,700 -540 Descending FlightAware
07:27PM 40.3260 -73.6490 209° Southwest 276 318 2,700  Level FlightAware
07:27PM 40.3140 -73.6570 207° Southwest 276 318 2,700  Level FlightAware
07:28PM 40.2850 -73.6760 207° Southwest 249 287 2,700  Level FlightAware
07:28PM 40.2660 -73.6890 208° Southwest 237 273 2,700  Level FlightAware
07:28PM 40.2510 -73.7050 219° Southwest 227 261 2,700  Level FlightAware
07:28PM 40.2470 -73.7160 245° Southwest 224 258 2,700  Level FlightAware
07:29PM 40.2360 -73.7550 250° West 224 258 2,700  Level FlightAware
07:29PM 40.2630 -73.7900 315° West 222 255 2,700  Level FlightAware
07:30PM 40.2720 -73.8180 293° West 218 251 2,700  Level FlightAware
07:30PM 40.2800 -73.8450 291° West 217 250 2,700  Level FlightAware
07:30PM 40.2860 -73.8640 292° West 218 251 2,700  Level FlightAware
07:31PM 40.2940 -73.8870 295° West 218 251 2,700  Level FlightAware
07:31PM 40.3010 -73.9080 294° West 200 230 2,700  Level FlightAware
07:31PM 40.3060 -73.9260 290° West 183 211 2,700  Level FlightAware
07:32PM 40.3130 -73.9470 294° West 176 203 2,700  Level FlightAware
07:32PM 40.3160 -73.9560 294° West 175 201 2,700  Level FlightAware
07:32PM 40.3220 -73.9620 323° Northwest 168 193 2,700  Level FlightAware
07:32PM 40.3270 -73.9640 343° North 164 189 2,700  Level FlightAware
07:32PM 40.3440 -73.9680 350° North 167 192 2,700  Level FlightAware
07:33PM 40.3490 -73.9690 351° North 165 190 2,700  Level FlightAware
07:33PM 40.3660 -73.9660 North 162 186 2,700  Level FlightAware
07:33PM 40.3740 -73.9630 16° North 162 186 2,700 -600 Level FlightAware
07:33PM 40.3870 -73.9550 25° Northeast 160 184 2,400 -840 Descending FlightAware
07:34PM 40.4030 -73.9430 30° Northeast 160 184 2,100 -960 Descending FlightAware
07:34PM 40.4120 -73.9360 31° Northeast 160 184 1,800 -600 Descending FlightAware
07:35PM 40.4280 -73.9240 30° Northeast 162 186 1,700 -180 Descending FlightAware
07:35PM 40.4380 -73.9160 31° Northeast 163 188 1,700  Level FlightAware
07:35PM 40.4500 -73.9070 30° Northeast 162 186 1,700  Level FlightAware
07:36PM 40.4680 -73.8930 31° Northeast 163 188 1,700  Level FlightAware
07:36PM 40.4880 -73.8770 31° Northeast 164 189 1,700  Level FlightAware
07:36PM 40.5030 -73.8660 29° Northeast 163 188 1,700  Level FlightAware
07:37PM 40.5130 -73.8580 31° Northeast 161 185 1,700  Level FlightAware
07:37PM 40.5340 -73.8420 30° Northeast 161 185 1,700 -240 Level FlightAware
07:38PM 40.5470 -73.8320 30° Northeast 158 182 1,500 -600 Descending FlightAware
07:38PM 40.5590 -73.8230 30° Northeast 148 170 1,300 -720 Descending FlightAware
07:38PM 40.5720 -73.8120 33° Northeast 129 148 1,000 -780 Descending FlightAware
07:39PM 40.5810 -73.8050 31° Northeast 128 147 800 -660 Descending FlightAware
07:39PM 40.5900 -73.7980 31° Northeast 126 145 600 -720 Descending FlightAware
07:39PM 40.6020 -73.7890 30° Northeast 129 148 300 -840 Descending FlightAware
07:40PM 40.6140 -73.7790 32° Northeast 127 146 -780 Descending FlightAware
07:40PM 40.6240 -73.7720 28° Northeast 129 148  Level FlightAware
07:40PM 40.6340 -73.7640 31° Northeast 105 121  Level FlightAware